Time;durP1;ratioP1;P1;durP2;ratioP2;P2;SDS_P1;SDS_P2;PMS_P1;PMS_P2;Temp;Humidity;BMP_temperature;BMP_pressure;BME280_temperature;BME280_humidity;BME280_pressure;Samples;Min_cycle;Max_cycle;Signal;HPM_P1;HPM_P2
2023/08/07 00:02:40;;;;;;;4.10;1.40;;;;;;;;;;8202981;28;20034;-70
2023/08/07 00:06:40;;;;;;;5.22;1.25;;;;;;;;;;8204158;28;20023;-70
2023/08/07 00:10:40;;;;;;;8.77;1.80;;;;;;;;;;8202951;28;20030;-70
2023/08/07 00:14:40;;;;;;;3.22;1.30;;;;;;;;;;8203807;28;20441;-70
2023/08/07 00:18:41;;;;;;;7.13;1.88;;;;;;;;;;8206531;28;20038;-70
2023/08/07 00:22:41;;;;;;;5.30;1.30;;;;;;;;;;8207755;28;20033;-70
2023/08/07 00:26:41;;;;;;;3.87;1.30;;;;;;;;;;8206201;28;20026;-70
2023/08/07 00:30:41;;;;;;;3.85;1.38;;;;;;;;;;8203347;28;20030;-70
2023/08/07 00:34:41;;;;;;;5.67;1.53;;;;;;;;;;8203693;28;20030;-70
2023/08/07 00:38:42;;;;;;;4.25;1.20;;;;;;;;;;8203103;28;20121;-70
2023/08/07 00:42:42;;;;;;;5.28;1.40;;;;;;;;;;8200150;28;20077;-70
2023/08/07 00:46:42;;;;;;;5.38;1.73;;;;;;;;;;8201149;28;20040;-70
2023/08/07 00:50:44;;;;;;;3.15;1.20;;;;;;;;;;8202260;28;20034;-70
2023/08/07 00:54:45;;;;;;;5.68;1.60;;;;;;;;;;8204037;28;20019;-70
2023/08/07 00:58:45;;;;;;;6.47;1.50;;;;;;;;;;8206107;28;20784;-70
2023/08/07 01:02:47;;;;;;;6.47;1.70;;;;;;;;;;8206015;28;20285;-70
2023/08/07 01:06:47;;;;;;;2.70;1.40;;;;;;;;;;8202325;28;20077;-70
2023/08/07 01:11:03;;;;;;;5.63;1.30;;;;;;;;;;8209162;28;20035;-70
2023/08/07 01:15:03;;;;;;;8.98;2.30;;;;;;;;;;8211025;28;20606;-70
2023/08/07 01:19:04;;;;;;;3.33;1.58;;;;;;;;;;8208218;28;20058;-70
2023/08/07 01:23:04;;;;;;;3.45;1.50;;;;;;;;;;8212744;28;20026;-70
2023/08/07 01:27:15;;;;;;;7.53;1.58;;;;;;;;;;8211746;28;20035;-70
2023/08/07 01:31:18;;;;;;;6.45;2.00;;;;;;;;;;8202292;28;20044;-70
2023/08/07 01:35:20;;;;;;;4.47;1.58;;;;;;;;;;8209974;28;20026;-70
2023/08/07 01:39:21;;;;;;;5.82;1.52;;;;;;;;;;8210726;28;20097;-70
2023/08/07 01:43:22;;;;;;;5.25;1.75;;;;;;;;;;8212127;28;20062;-70
2023/08/07 01:47:22;;;;;;;3.80;1.58;;;;;;;;;;8209574;28;20042;-70
2023/08/07 01:51:22;;;;;;;6.23;1.67;;;;;;;;;;8209944;28;20034;-70
2023/08/07 01:55:22;;;;;;;5.50;1.80;;;;;;;;;;8210052;28;20858;-70
2023/08/07 01:59:23;;;;;;;4.95;1.42;;;;;;;;;;8209345;28;20026;-70
2023/08/07 02:03:23;;;;;;;6.83;1.57;;;;;;;;;;8210333;28;20039;-70
2023/08/07 02:07:23;;;;;;;8.02;1.92;;;;;;;;;;8207713;28;20300;-70
2023/08/07 02:11:24;;;;;;;5.85;2.00;;;;;;;;;;8211800;28;20027;-70
2023/08/07 02:15:24;;;;;;;4.77;1.70;;;;;;;;;;8208987;28;20045;-70
2023/08/07 02:19:24;;;;;;;8.20;1.92;;;;;;;;;;8208670;28;20019;-70
2023/08/07 02:23:24;;;;;;;5.95;2.00;;;;;;;;;;8210414;28;20416;-70
2023/08/07 02:27:24;;;;;;;8.35;2.08;;;;;;;;;;8207954;28;20129;-70
2023/08/07 02:31:25;;;;;;;3.30;1.60;;;;;;;;;;8209188;28;20048;-70
2023/08/07 02:35:25;;;;;;;6.53;1.70;;;;;;;;;;8208828;28;20022;-70
2023/08/07 02:39:25;;;;;;;6.43;1.80;;;;;;;;;;8211140;28;20039;-70
2023/08/07 02:43:28;;;;;;;7.00;1.95;;;;;;;;;;8208098;28;20141;-70
2023/08/07 02:47:29;;;;;;;6.15;1.50;;;;;;;;;;8205556;28;20042;-70
2023/08/07 02:51:29;;;;;;;3.97;1.50;;;;;;;;;;8208927;28;20030;-70
2023/08/07 02:55:29;;;;;;;6.30;1.67;;;;;;;;;;8208188;28;20034;-70
2023/08/07 02:59:29;;;;;;;5.05;1.83;;;;;;;;;;8207312;28;20096;-70
2023/08/07 03:03:29;;;;;;;8.23;1.70;;;;;;;;;;8210175;28;20044;-70
2023/08/07 03:07:30;;;;;;;6.20;1.70;;;;;;;;;;8208941;28;20038;-70
2023/08/07 03:11:30;;;;;;;6.15;1.52;;;;;;;;;;8209633;28;20033;-70
2023/08/07 03:15:30;;;;;;;6.82;1.85;;;;;;;;;;8206233;28;20059;-70
2023/08/07 03:19:30;;;;;;;5.45;1.85;;;;;;;;;;8205362;28;20159;-70
2023/08/07 03:23:30;;;;;;;3.33;1.70;;;;;;;;;;8204570;28;20145;-70
2023/08/07 03:27:31;;;;;;;5.80;1.70;;;;;;;;;;8203907;28;20292;-70
2023/08/07 03:31:31;;;;;;;6.70;2.00;;;;;;;;;;8206424;28;20041;-70
2023/08/07 03:35:31;;;;;;;5.45;1.55;;;;;;;;;;8207352;28;20293;-70
2023/08/07 03:39:31;;;;;;;5.57;1.58;;;;;;;;;;8202906;28;20062;-70
2023/08/07 03:43:32;;;;;;;6.47;1.45;;;;;;;;;;8205860;28;20026;-70
2023/08/07 03:47:32;;;;;;;8.55;1.63;;;;;;;;;;8205160;28;20048;-70
2023/08/07 03:51:32;;;;;;;5.40;1.50;;;;;;;;;;8206116;28;20026;-70
2023/08/07 03:55:33;;;;;;;10.43;1.75;;;;;;;;;;8205967;28;20680;-70
2023/08/07 03:59:33;;;;;;;7.87;2.43;;;;;;;;;;8202694;28;20037;-70
2023/08/07 04:03:33;;;;;;;7.22;2.10;;;;;;;;;;8204510;28;21094;-70
2023/08/07 04:07:33;;;;;;;5.35;1.67;;;;;;;;;;8205338;28;20034;-70
2023/08/07 04:11:34;;;;;;;7.40;1.60;;;;;;;;;;8221787;28;20030;-70
2023/08/07 04:15:34;;;;;;;6.87;1.50;;;;;;;;;;8206495;28;20093;-70
2023/08/07 04:19:34;;;;;;;9.52;1.80;;;;;;;;;;8203707;28;20277;-70
2023/08/07 04:23:34;;;;;;;4.63;1.83;;;;;;;;;;8206383;28;20036;-70
2023/08/07 04:27:34;;;;;;;5.97;1.80;;;;;;;;;;8205598;28;20057;-70
2023/08/07 04:31:35;;;;;;;4.30;1.50;;;;;;;;;;8204806;28;20035;-70
2023/08/07 04:35:35;;;;;;;5.38;1.80;;;;;;;;;;8205040;28;20149;-70
2023/08/07 04:39:36;;;;;;;5.90;1.98;;;;;;;;;;8212838;28;20034;-70
2023/08/07 04:43:36;;;;;;;5.18;1.77;;;;;;;;;;8205738;28;20034;-70
2023/08/07 04:47:37;;;;;;;4.17;1.63;;;;;;;;;;8204697;28;20514;-70
2023/08/07 04:51:37;;;;;;;6.47;1.90;;;;;;;;;;8206058;28;20132;-70
2023/08/07 04:55:38;;;;;;;4.17;1.60;;;;;;;;;;8206752;28;20776;-70
2023/08/07 04:59:38;;;;;;;6.00;1.60;;;;;;;;;;8214236;28;20121;-70
2023/08/07 05:03:38;;;;;;;6.37;1.83;;;;;;;;;;8205547;28;20034;-70
2023/08/07 05:07:39;;;;;;;7.53;1.50;;;;;;;;;;8204469;28;20329;-71
2023/08/07 05:11:40;;;;;;;6.90;1.77;;;;;;;;;;8207449;28;20120;-70
2023/08/07 05:15:40;;;;;;;6.45;1.88;;;;;;;;;;8207087;28;20035;-70
2023/08/07 05:19:41;;;;;;;3.75;1.60;;;;;;;;;;8205438;28;20025;-70
2023/08/07 05:23:41;;;;;;;3.60;1.80;;;;;;;;;;8202101;28;20035;-71
2023/08/07 05:27:41;;;;;;;11.48;2.08;;;;;;;;;;8205197;28;20023;-71
2023/08/07 05:31:42;;;;;;;3.17;1.50;;;;;;;;;;8205948;28;20193;-70
2023/08/07 05:35:42;;;;;;;5.38;1.50;;;;;;;;;;8206786;28;20072;-70
2023/08/07 05:39:43;;;;;;;4.20;1.52;;;;;;;;;;8206026;28;20023;-70
2023/08/07 05:43:43;;;;;;;5.90;1.50;;;;;;;;;;8205799;28;20118;-70
2023/08/07 05:47:43;;;;;;;3.42;1.70;;;;;;;;;;8205128;28;20282;-70
2023/08/07 05:51:43;;;;;;;5.53;1.60;;;;;;;;;;8206904;28;20173;-71
2023/08/07 05:55:43;;;;;;;4.25;1.63;;;;;;;;;;8206619;28;20023;-70
2023/08/07 05:59:43;;;;;;;7.93;1.80;;;;;;;;;;8210422;28;20158;-71
2023/08/07 06:03:44;;;;;;;3.67;1.50;;;;;;;;;;8211420;28;20066;-70
2023/08/07 06:07:44;;;;;;;4.88;1.80;;;;;;;;;;8209789;28;20106;-70
2023/08/07 06:11:44;;;;;;;4.82;1.90;;;;;;;;;;8212742;28;20033;-70
2023/08/07 06:15:44;;;;;;;7.93;1.73;;;;;;;;;;8208822;28;20072;-70
2023/08/07 06:19:45;;;;;;;12.32;2.00;;;;;;;;;;8210813;28;20064;-70
2023/08/07 06:23:45;;;;;;;2.92;1.50;;;;;;;;;;8208247;28;20033;-70
2023/08/07 06:27:45;;;;;;;5.20;1.60;;;;;;;;;;8210935;28;20031;-70
2023/08/07 06:31:45;;;;;;;2.90;1.40;;;;;;;;;;8208169;28;20581;-70
2023/08/07 06:35:45;;;;;;;5.82;1.80;;;;;;;;;;8209751;28;22444;-70
2023/08/07 06:39:46;;;;;;;3.55;1.33;;;;;;;;;;8210574;28;20166;-70
2023/08/07 06:43:47;;;;;;;2.15;1.20;;;;;;;;;;8210570;28;20050;-70
2023/08/07 06:47:47;;;;;;;4.55;1.40;;;;;;;;;;8209728;28;20082;-70
2023/08/07 06:51:47;;;;;;;8.20;1.50;;;;;;;;;;8210349;28;20126;-70
2023/08/07 06:55:47;;;;;;;5.43;1.67;;;;;;;;;;8208853;28;20033;-70
2023/08/07 06:59:47;;;;;;;7.90;1.90;;;;;;;;;;8210154;28;20034;-70
2023/08/07 07:03:52;;;;;;;5.75;1.52;;;;;;;;;;8207162;28;20490;-70
2023/08/07 07:07:52;;;;;;;5.47;1.63;;;;;;;;;;8205267;28;20025;-70
2023/08/07 07:11:53;;;;;;;5.35;1.60;;;;;;;;;;8201252;28;20030;-70
2023/08/07 07:15:54;;;;;;;7.57;1.53;;;;;;;;;;8207953;28;20034;-70
2023/08/07 07:19:56;;;;;;;6.82;2.03;;;;;;;;;;8209361;28;20273;-70
2023/08/07 07:23:56;;;;;;;5.70;1.50;;;;;;;;;;8208827;28;20028;-69
2023/08/07 07:27:57;;;;;;;3.17;1.33;;;;;;;;;;8207514;28;20940;-69
2023/08/07 07:31:57;;;;;;;3.22;1.45;;;;;;;;;;8208235;28;20030;-70
2023/08/07 07:35:58;;;;;;;5.65;1.40;;;;;;;;;;8206873;28;20141;-70
2023/08/07 07:39:58;;;;;;;3.60;1.58;;;;;;;;;;8205839;28;20034;-70
2023/08/07 07:43:58;;;;;;;4.82;1.50;;;;;;;;;;8207209;28;20112;-71
2023/08/07 07:47:59;;;;;;;4.80;1.63;;;;;;;;;;8203061;28;20040;-70
2023/08/07 07:51:59;;;;;;;5.95;1.42;;;;;;;;;;8207727;28;20027;-70
2023/08/07 07:55:59;;;;;;;4.03;1.38;;;;;;;;;;8207371;28;20141;-70
2023/08/07 08:00:00;;;;;;;4.35;1.55;;;;;;;;;;8205431;28;20030;-70
2023/08/07 08:04:01;;;;;;;2.75;1.58;;;;;;;;;;8206905;28;20638;-70
2023/08/07 08:08:01;;;;;;;2.90;1.45;;;;;;;;;;8206957;28;20034;-70
2023/08/07 08:12:01;;;;;;;9.50;1.58;;;;;;;;;;8212815;28;20031;-70
2023/08/07 08:16:01;;;;;;;3.90;1.70;;;;;;;;;;8205995;28;20039;-70
2023/08/07 08:20:02;;;;;;;4.07;1.33;;;;;;;;;;8205128;28;20360;-71
2023/08/07 08:24:02;;;;;;;5.00;1.85;;;;;;;;;;8205528;28;20590;-71
2023/08/07 08:28:03;;;;;;;3.63;1.50;;;;;;;;;;8205779;28;20034;-71
2023/08/07 08:32:03;;;;;;;4.25;1.45;;;;;;;;;;8213786;28;20088;-70
2023/08/07 08:36:03;;;;;;;4.47;1.60;;;;;;;;;;8206899;28;20072;-71
2023/08/07 08:40:06;;;;;;;5.20;1.70;;;;;;;;;;8204902;28;20544;-71
2023/08/07 08:44:07;;;;;;;5.38;1.70;;;;;;;;;;8206930;28;20076;-70
2023/08/07 08:48:07;;;;;;;4.30;1.45;;;;;;;;;;8203793;28;20043;-70
2023/08/07 08:52:08;;;;;;;5.53;1.45;;;;;;;;;;8204596;28;20162;-70
2023/08/07 08:56:08;;;;;;;3.78;1.70;;;;;;;;;;8204216;28;20026;-70
2023/08/07 09:00:20;;;;;;;2.75;1.60;;;;;;;;;;8199285;28;20140;-71
2023/08/07 09:04:20;;;;;;;2.80;1.58;;;;;;;;;;8207571;28;20141;-71
2023/08/07 09:08:22;;;;;;;4.93;1.40;;;;;;;;;;8204425;28;20065;-71
2023/08/07 09:12:25;;;;;;;5.93;1.80;;;;;;;;;;8207551;28;20080;-71
2023/08/07 09:16:27;;;;;;;9.05;1.88;;;;;;;;;;8212950;28;20047;-71
2023/08/07 09:20:28;;;;;;;3.58;1.60;;;;;;;;;;8223974;28;20030;-71
2023/08/07 09:24:28;;;;;;;4.75;1.65;;;;;;;;;;8210396;28;20163;-71
2023/08/07 09:28:29;;;;;;;6.18;1.50;;;;;;;;;;8210049;28;20740;-71
2023/08/07 09:32:30;;;;;;;5.40;1.88;;;;;;;;;;8210379;28;20138;-71
2023/08/07 09:36:31;;;;;;;6.68;1.50;;;;;;;;;;8208428;28;20130;-71
2023/08/07 09:40:31;;;;;;;4.93;1.63;;;;;;;;;;8212274;28;20077;-71
2023/08/07 09:44:38;;;;;;;2.10;1.30;;;;;;;;;;8210284;28;20022;-71
2023/08/07 09:48:41;;;;;;;5.72;1.77;;;;;;;;;;8207633;28;20289;-71
2023/08/07 09:52:42;;;;;;;;;;;;;;;;;;8212996;28;20021;-70
2023/08/07 09:56:43;;;;;;;4.50;1.85;;;;;;;;;;8204870;28;20955;-71
2023/08/07 10:00:46;;;;;;;4.75;1.60;;;;;;;;;;8207640;28;20621;-71
2023/08/07 10:04:46;;;;;;;4.20;1.63;;;;;;;;;;8211029;28;20034;-71
2023/08/07 10:08:47;;;;;;;2.80;1.48;;;;;;;;;;8212523;28;20026;-71
2023/08/07 10:12:48;;;;;;;4.78;1.80;;;;;;;;;;8210823;28;20023;-71
2023/08/07 10:16:48;;;;;;;3.05;1.60;;;;;;;;;;8207845;28;20050;-70
2023/08/07 10:20:49;;;;;;;6.10;2.17;;;;;;;;;;8206090;28;20506;-70
2023/08/07 10:24:50;;;;;;;2.55;1.38;;;;;;;;;;8206305;28;20149;-70
2023/08/07 10:28:52;;;;;;;1.65;1.42;;;;;;;;;;8204098;28;20065;-71
2023/08/07 10:32:53;;;;;;;3.00;1.75;;;;;;;;;;8206081;28;20149;-70
2023/08/07 10:36:53;;;;;;;4.78;1.50;;;;;;;;;;8205942;28;20074;-70
2023/08/07 10:41:06;;;;;;;2.80;1.67;;;;;;;;;;8208124;28;20034;-70
2023/08/07 10:45:06;;;;;;;5.30;1.53;;;;;;;;;;8199650;28;21225;-70
2023/08/07 10:49:07;;;;;;;4.07;1.60;;;;;;;;;;8204273;28;20113;-70
2023/08/07 10:53:07;;;;;;;4.80;1.60;;;;;;;;;;8205671;28;20042;-71
2023/08/07 10:57:09;;;;;;;2.22;1.35;;;;;;;;;;8207528;28;20031;-71
2023/08/07 11:01:28;;;;;;;2.05;1.25;;;;;;;;;;8205504;28;20109;-71
2023/08/07 11:05:30;;;;;;;3.67;1.40;;;;;;;;;;8206699;28;20027;-71
2023/08/07 11:09:30;;;;;;;2.22;1.40;;;;;;;;;;8206432;28;20624;-71
2023/08/07 11:13:30;;;;;;;1.70;1.10;;;;;;;;;;8210391;28;20114;-71
2023/08/07 11:17:31;;;;;;;3.42;1.20;;;;;;;;;;8204915;28;20062;-71
2023/08/07 11:21:32;;;;;;;1.83;0.97;;;;;;;;;;8205347;28;20659;-71
2023/08/07 11:25:32;;;;;;;2.35;1.20;;;;;;;;;;8201083;28;20062;-71
2023/08/07 11:29:32;;;;;;;2.00;1.03;;;;;;;;;;8206147;28;20086;-71
2023/08/07 11:33:33;;;;;;;2.95;1.45;;;;;;;;;;8204961;28;20039;-71
2023/08/07 11:37:33;;;;;;;2.22;1.20;;;;;;;;;;8203290;28;20706;-72
2023/08/07 11:41:34;;;;;;;2.08;1.25;;;;;;;;;;8207823;28;20041;-72
2023/08/07 11:45:34;;;;;;;4.15;1.20;;;;;;;;;;8205589;28;20045;-72
2023/08/07 11:49:35;;;;;;;3.05;1.40;;;;;;;;;;8209623;28;20462;-71
2023/08/07 11:53:36;;;;;;;3.67;1.37;;;;;;;;;;8205193;28;20907;-71
2023/08/07 11:57:38;;;;;;;1.83;1.30;;;;;;;;;;8208823;28;20046;-71
2023/08/07 12:01:39;;;;;;;1.70;1.33;;;;;;;;;;8206940;28;20042;-71
2023/08/07 12:05:40;;;;;;;2.80;1.20;;;;;;;;;;8206479;28;20030;-71
2023/08/07 12:09:41;;;;;;;2.42;1.30;;;;;;;;;;8204487;28;20122;-72
2023/08/07 12:13:42;;;;;;;4.43;1.30;;;;;;;;;;8203656;28;21063;-71
2023/08/07 12:17:42;;;;;;;1.33;1.10;;;;;;;;;;8203810;28;20046;-71
2023/08/07 12:21:43;;;;;;;2.72;1.35;;;;;;;;;;8205024;28;20085;-71
2023/08/07 12:25:44;;;;;;;3.60;1.23;;;;;;;;;;8204110;28;20022;-72
2023/08/07 12:29:45;;;;;;;4.65;1.40;;;;;;;;;;8204930;28;20030;-71
2023/08/07 12:33:45;;;;;;;3.85;1.30;;;;;;;;;;8203073;28;20064;-71
2023/08/07 12:37:45;;;;;;;2.58;1.30;;;;;;;;;;8201595;28;20064;-71
2023/08/07 12:41:48;;;;;;;2.35;1.15;;;;;;;;;;8205698;28;20050;-72
2023/08/07 12:45:48;;;;;;;3.97;1.50;;;;;;;;;;8205366;28;20066;-71
2023/08/07 12:49:48;;;;;;;3.55;1.65;;;;;;;;;;8203197;28;20034;-71
2023/08/07 12:53:51;;;;;;;2.47;1.30;;;;;;;;;;8205389;28;20087;-71
2023/08/07 12:57:52;;;;;;;2.00;1.38;;;;;;;;;;8205192;28;20029;-71
2023/08/07 13:01:53;;;;;;;3.50;1.40;;;;;;;;;;8207984;28;20093;-71
2023/08/07 13:05:53;;;;;;;1.52;1.30;;;;;;;;;;8207826;28;20019;-71
2023/08/07 13:09:55;;;;;;;2.05;1.40;;;;;;;;;;8209971;28;20134;-71
2023/08/07 13:13:56;;;;;;;3.15;1.30;;;;;;;;;;8212150;28;20030;-71
2023/08/07 13:17:56;;;;;;;1.55;1.20;;;;;;;;;;8209602;28;20064;-71
2023/08/07 13:21:56;;;;;;;3.13;1.40;;;;;;;;;;8210921;28;20069;-71
2023/08/07 13:25:57;;;;;;;4.53;1.40;;;;;;;;;;8210782;28;20315;-71
2023/08/07 13:29:57;;;;;;;2.78;1.42;;;;;;;;;;8209265;28;20025;-72
2023/08/07 13:33:57;;;;;;;5.18;1.73;;;;;;;;;;8207821;28;20057;-72
2023/08/07 13:37:57;;;;;;;2.47;1.50;;;;;;;;;;8206568;28;20395;-72
2023/08/07 13:41:59;;;;;;;3.50;1.55;;;;;;;;;;8207082;28;20031;-72
2023/08/07 13:45:59;;;;;;;3.58;1.50;;;;;;;;;;8206044;28;20058;-72
2023/08/07 13:50:01;;;;;;;3.47;1.58;;;;;;;;;;8208087;28;20038;-72
2023/08/07 13:54:01;;;;;;;1.85;1.40;;;;;;;;;;8208950;28;20462;-73
2023/08/07 13:58:01;;;;;;;1.38;1.23;;;;;;;;;;8205574;28;20027;-72
2023/08/07 14:02:01;;;;;;;2.37;1.50;;;;;;;;;;8207319;28;20039;-72
2023/08/07 14:06:02;;;;;;;3.03;1.80;;;;;;;;;;8210010;28;20364;-72
2023/08/07 14:10:02;;;;;;;3.40;1.55;;;;;;;;;;8214686;28;20062;-72
2023/08/07 14:14:03;;;;;;;2.80;1.48;;;;;;;;;;8207897;28;20023;-72
2023/08/07 14:18:04;;;;;;;3.30;1.53;;;;;;;;;;8207354;28;20043;-73
2023/08/07 14:22:04;;;;;;;2.33;1.63;;;;;;;;;;8208543;28;20022;-73
2023/08/07 14:26:05;;;;;;;2.65;1.48;;;;;;;;;;8208483;28;20035;-72
2023/08/07 14:30:05;;;;;;;2.83;1.55;;;;;;;;;;8206488;28;20035;-73
2023/08/07 14:34:05;;;;;;;5.88;1.63;;;;;;;;;;8205676;28;20034;-72
2023/08/07 14:38:05;;;;;;;3.28;1.48;;;;;;;;;;8206886;28;20861;-72
2023/08/07 14:42:07;;;;;;;2.15;1.40;;;;;;;;;;8209838;28;20041;-72
2023/08/07 14:46:07;;;;;;;1.92;1.45;;;;;;;;;;8207785;28;20137;-73
2023/08/07 14:50:07;;;;;;;3.25;1.70;;;;;;;;;;8207247;28;20081;-72
2023/08/07 14:54:07;;;;;;;1.40;1.20;;;;;;;;;;8206351;28;20080;-72
2023/08/07 14:58:07;;;;;;;3.03;1.60;;;;;;;;;;8207172;28;20181;-72
2023/08/07 15:02:08;;;;;;;2.20;1.40;;;;;;;;;;8208122;28;20046;-73
2023/08/07 15:06:08;;;;;;;2.13;1.60;;;;;;;;;;8207383;28;20027;-72
2023/08/07 15:10:08;;;;;;;3.08;1.90;;;;;;;;;;8204360;28;20563;-72
2023/08/07 15:14:08;;;;;;;2.67;1.40;;;;;;;;;;8204465;28;20023;-72
2023/08/07 15:18:09;;;;;;;3.63;1.45;;;;;;;;;;8203470;28;20415;-72
2023/08/07 15:22:09;;;;;;;2.95;1.55;;;;;;;;;;8205411;28;20034;-72
2023/08/07 15:26:09;;;;;;;4.65;1.60;;;;;;;;;;8208788;28;20030;-72
2023/08/07 15:30:10;;;;;;;3.60;1.50;;;;;;;;;;8203998;28;20118;-73
2023/08/07 15:34:10;;;;;;;2.58;1.52;;;;;;;;;;8202891;28;20145;-73
2023/08/07 15:38:10;;;;;;;4.00;1.30;;;;;;;;;;8205185;28;20680;-72
2023/08/07 15:42:10;;;;;;;1.60;1.27;;;;;;;;;;8205097;28;20034;-72
2023/08/07 15:46:11;;;;;;;2.10;1.30;;;;;;;;;;8204883;28;20287;-72
2023/08/07 15:50:11;;;;;;;6.03;1.40;;;;;;;;;;8204182;28;20038;-72
2023/08/07 15:54:11;;;;;;;2.80;1.33;;;;;;;;;;8206396;28;20035;-72
2023/08/07 15:58:11;;;;;;;2.45;1.20;;;;;;;;;;8204175;28;20137;-72
2023/08/07 16:02:12;;;;;;;2.30;1.10;;;;;;;;;;8202384;28;20074;-73
2023/08/07 16:06:12;;;;;;;2.60;1.20;;;;;;;;;;8206247;28;20031;-72
2023/08/07 16:10:12;;;;;;;1.77;1.38;;;;;;;;;;8203441;28;20037;-72
2023/08/07 16:14:12;;;;;;;2.95;1.30;;;;;;;;;;8202535;28;20022;-71
2023/08/07 16:18:13;;;;;;;1.70;1.35;;;;;;;;;;8202463;28;20038;-71
2023/08/07 16:22:13;;;;;;;1.30;1.10;;;;;;;;;;8203723;28;20538;-72
2023/08/07 16:26:13;;;;;;;1.20;1.10;;;;;;;;;;8202601;28;20031;-71
2023/08/07 16:30:14;;;;;;;1.42;1.05;;;;;;;;;;8202970;28;20026;-72
2023/08/07 16:34:14;;;;;;;1.83;1.63;;;;;;;;;;8203317;28;20959;-72
2023/08/07 16:38:14;;;;;;;3.60;1.27;;;;;;;;;;8202927;28;20034;-71
2023/08/07 16:42:15;;;;;;;4.00;1.30;;;;;;;;;;8202897;28;20042;-72
2023/08/07 16:46:16;;;;;;;2.30;1.50;;;;;;;;;;8202502;28;20043;-71
2023/08/07 16:50:16;;;;;;;1.75;1.00;;;;;;;;;;8203053;28;20063;-71
2023/08/07 16:54:17;;;;;;;2.83;1.35;;;;;;;;;;8204374;28;20058;-71
2023/08/07 16:58:17;;;;;;;3.33;1.45;;;;;;;;;;8203595;28;20186;-71
2023/08/07 17:02:17;;;;;;;1.87;1.40;;;;;;;;;;8202646;28;20113;-71
2023/08/07 17:06:17;;;;;;;3.15;1.65;;;;;;;;;;8201663;28;20035;-72
2023/08/07 17:10:18;;;;;;;3.33;1.67;;;;;;;;;;8202574;28;20037;-71
2023/08/07 17:14:18;;;;;;;1.60;1.50;;;;;;;;;;8202726;28;20124;-71
2023/08/07 17:18:19;;;;;;;1.80;1.40;;;;;;;;;;8200254;28;20145;-71
2023/08/07 17:22:19;;;;;;;3.67;1.30;;;;;;;;;;8199583;28;20035;-71
2023/08/07 17:26:19;;;;;;;1.42;1.30;;;;;;;;;;8202093;28;20915;-71
2023/08/07 17:30:19;;;;;;;1.73;1.25;;;;;;;;;;8199393;28;20035;-71
2023/08/07 17:34:19;;;;;;;1.73;1.27;;;;;;;;;;8198619;28;20026;-70
2023/08/07 17:38:20;;;;;;;1.17;1.05;;;;;;;;;;8199757;28;20743;-71
2023/08/07 17:42:20;;;;;;;2.00;1.30;;;;;;;;;;8202931;28;20026;-71
2023/08/07 17:46:20;;;;;;;1.65;1.10;;;;;;;;;;8200069;28;21134;-71
2023/08/07 17:50:21;;;;;;;2.80;1.40;;;;;;;;;;8201522;28;20041;-71
2023/08/07 17:54:21;;;;;;;4.75;1.25;;;;;;;;;;8206033;28;20035;-71
2023/08/07 17:58:21;;;;;;;2.43;1.27;;;;;;;;;;8206927;28;20853;-71
2023/08/07 18:02:22;;;;;;;2.35;1.10;;;;;;;;;;8206839;28;20333;-71
2023/08/07 18:06:22;;;;;;;2.57;1.40;;;;;;;;;;8208003;28;20788;-71
2023/08/07 18:10:22;;;;;;;4.18;1.60;;;;;;;;;;8204791;28;20765;-71
2023/08/07 18:14:22;;;;;;;1.77;1.30;;;;;;;;;;8206760;28;20030;-71
2023/08/07 18:18:23;;;;;;;3.05;1.30;;;;;;;;;;8207049;28;20998;-71
2023/08/07 18:22:23;;;;;;;1.30;1.05;;;;;;;;;;8207942;28;20041;-71
2023/08/07 18:26:24;;;;;;;3.55;1.33;;;;;;;;;;8209874;28;20030;-72
2023/08/07 18:30:24;;;;;;;2.90;1.27;;;;;;;;;;8209290;28;20082;-72
2023/08/07 18:34:25;;;;;;;4.50;1.30;;;;;;;;;;8208585;28;20041;-71
2023/08/07 18:38:26;;;;;;;1.98;1.30;;;;;;;;;;8206060;28;20034;-71
2023/08/07 18:42:26;;;;;;;1.98;1.20;;;;;;;;;;8208199;28;20027;-71
2023/08/07 18:46:26;;;;;;;1.20;1.10;;;;;;;;;;8205890;28;20038;-71
2023/08/07 18:50:27;;;;;;;3.23;1.10;;;;;;;;;;8203392;28;20050;-71
2023/08/07 18:54:27;;;;;;;1.17;1.07;;;;;;;;;;8205091;28;20069;-71
2023/08/07 18:58:27;;;;;;;1.30;1.20;;;;;;;;;;8206344;28;20034;-72
2023/08/07 19:02:27;;;;;;;1.30;1.20;;;;;;;;;;8204054;28;20097;-71
2023/08/07 19:06:31;;;;;;;3.60;1.20;;;;;;;;;;8206032;28;20085;-72
2023/08/07 19:10:31;;;;;;;2.90;1.40;;;;;;;;;;8203229;28;20074;-72
2023/08/07 19:14:31;;;;;;;1.60;1.13;;;;;;;;;;8220183;28;20185;-72
2023/08/07 19:18:32;;;;;;;3.10;1.10;;;;;;;;;;8203700;28;20053;-71
2023/08/07 19:22:32;;;;;;;1.13;1.02;;;;;;;;;;8206516;28;20282;-71
2023/08/07 19:26:32;;;;;;;2.20;1.20;;;;;;;;;;8207784;28;20019;-71
2023/08/07 19:30:33;;;;;;;2.92;1.23;;;;;;;;;;8207010;28;20141;-72
2023/08/07 19:34:34;;;;;;;1.20;1.10;;;;;;;;;;8203542;28;20163;-72
2023/08/07 19:38:34;;;;;;;2.97;1.30;;;;;;;;;;8202924;28;20022;-71
2023/08/07 19:42:34;;;;;;;2.00;1.20;;;;;;;;;;8201326;28;20065;-72
2023/08/07 19:46:35;;;;;;;3.92;0.98;;;;;;;;;;8203002;28;20045;-71
2023/08/07 19:50:36;;;;;;;1.60;1.17;;;;;;;;;;8203974;28;20019;-71
2023/08/07 19:54:36;;;;;;;2.13;1.20;;;;;;;;;;8202221;28;20018;-70
2023/08/07 19:58:36;;;;;;;1.92;1.20;;;;;;;;;;8203054;28;20061;-70
2023/08/07 20:02:36;;;;;;;2.10;1.15;;;;;;;;;;8205162;28;20129;-70
2023/08/07 20:06:36;;;;;;;3.80;1.08;;;;;;;;;;8203360;28;20029;-69
2023/08/07 20:10:37;;;;;;;1.40;1.00;;;;;;;;;;8202004;28;20030;-70
2023/08/07 20:14:37;;;;;;;2.70;1.10;;;;;;;;;;8202068;28;20035;-70
2023/08/07 20:18:37;;;;;;;2.60;1.20;;;;;;;;;;8200859;28;20042;-70
2023/08/07 20:22:37;;;;;;;2.47;1.30;;;;;;;;;;8201575;28;20289;-70
2023/08/07 20:26:37;;;;;;;1.02;0.93;;;;;;;;;;8202677;28;20136;-70
2023/08/07 20:30:38;;;;;;;1.85;1.15;;;;;;;;;;8202168;28;20057;-70
2023/08/07 20:34:38;;;;;;;2.25;1.13;;;;;;;;;;8200015;28;20030;-70
2023/08/07 20:38:39;;;;;;;2.00;1.15;;;;;;;;;;8200408;28;20117;-70
2023/08/07 20:42:39;;;;;;;1.17;1.08;;;;;;;;;;8198125;28;20022;-70
2023/08/07 20:46:40;;;;;;;1.10;1.00;;;;;;;;;;8198246;28;20062;-70
2023/08/07 20:50:40;;;;;;;1.90;1.03;;;;;;;;;;8202006;28;20453;-70
2023/08/07 20:54:40;;;;;;;1.20;1.10;;;;;;;;;;8201907;28;20030;-70
2023/08/07 20:58:41;;;;;;;0.93;0.93;;;;;;;;;;8200506;28;20038;-70
2023/08/07 21:02:41;;;;;;;0.85;0.80;;;;;;;;;;8203722;28;20506;-70
2023/08/07 21:06:42;;;;;;;0.88;0.80;;;;;;;;;;8202391;28;20038;-70
2023/08/07 21:10:42;;;;;;;1.20;1.10;;;;;;;;;;8202350;28;20034;-70
2023/08/07 21:14:44;;;;;;;2.10;1.27;;;;;;;;;;8213024;28;20756;-70
2023/08/07 21:18:45;;;;;;;1.33;1.10;;;;;;;;;;8201737;28;20045;-70
2023/08/07 21:22:45;;;;;;;1.33;1.20;;;;;;;;;;8200053;28;20141;-71
2023/08/07 21:26:45;;;;;;;1.25;1.00;;;;;;;;;;8205098;28;20033;-70
2023/08/07 21:30:45;;;;;;;1.13;1.07;;;;;;;;;;8208302;28;20717;-70
2023/08/07 21:34:45;;;;;;;1.15;0.98;;;;;;;;;;8207518;28;20030;-70
2023/08/07 21:38:46;;;;;;;0.90;0.90;;;;;;;;;;8207772;28;20145;-70
2023/08/07 21:42:46;;;;;;;1.60;1.13;;;;;;;;;;8194862;28;20042;-70
2023/08/07 21:46:46;;;;;;;1.23;1.10;;;;;;;;;;8206267;28;20033;-70
2023/08/07 21:50:46;;;;;;;2.42;1.13;;;;;;;;;;8207295;28;20390;-70
2023/08/07 21:54:46;;;;;;;1.92;1.10;;;;;;;;;;8205855;28;20045;-70
2023/08/07 21:58:47;;;;;;;1.52;1.02;;;;;;;;;;8207910;28;20030;-70
2023/08/07 22:02:47;;;;;;;3.58;1.10;;;;;;;;;;8204883;28;20035;-70
2023/08/07 22:06:48;;;;;;;2.70;1.00;;;;;;;;;;8202935;28;20751;-70
2023/08/07 22:10:48;;;;;;;2.40;1.10;;;;;;;;;;8204584;28;20049;-70
2023/08/07 22:14:48;;;;;;;2.58;1.10;;;;;;;;;;8205989;28;20716;-70
2023/08/07 22:18:48;;;;;;;3.58;0.95;;;;;;;;;;8202729;28;20049;-71
2023/08/07 22:22:48;;;;;;;2.20;1.05;;;;;;;;;;8204348;28;20148;-70
2023/08/07 22:26:49;;;;;;;2.00;1.10;;;;;;;;;;8205524;28;20053;-70
2023/08/07 22:30:51;;;;;;;4.22;1.00;;;;;;;;;;8202395;28;20898;-70
2023/08/07 22:34:51;;;;;;;1.25;0.98;;;;;;;;;;8203815;28;20070;-70
2023/08/07 22:38:51;;;;;;;1.08;0.90;;;;;;;;;;8203126;28;20022;-70
2023/08/07 22:42:51;;;;;;;1.35;1.10;;;;;;;;;;8202508;28;20046;-70
2023/08/07 22:46:52;;;;;;;1.17;1.08;;;;;;;;;;8203722;28;20038;-70
2023/08/07 22:50:53;;;;;;;1.27;1.10;;;;;;;;;;8202791;28;20120;-70
2023/08/07 22:54:53;;;;;;;1.00;1.00;;;;;;;;;;8205216;28;20037;-70
2023/08/07 22:58:53;;;;;;;1.23;1.02;;;;;;;;;;8206490;28;20022;-70
2023/08/07 23:02:54;;;;;;;1.15;1.00;;;;;;;;;;8198685;28;20515;-70
2023/08/07 23:06:54;;;;;;;1.77;1.10;;;;;;;;;;8203473;28;20499;-70
2023/08/07 23:10:54;;;;;;;1.02;0.90;;;;;;;;;;8201917;28;20030;-70
2023/08/07 23:14:54;;;;;;;1.30;1.20;;;;;;;;;;8203451;28;20041;-70
2023/08/07 23:18:54;;;;;;;1.77;1.00;;;;;;;;;;8202951;28;20038;-70
2023/08/07 23:22:55;;;;;;;1.58;1.02;;;;;;;;;;8202580;28;20045;-70
2023/08/07 23:26:55;;;;;;;1.87;1.17;;;;;;;;;;8201653;28;20022;-70
2023/08/07 23:30:55;;;;;;;1.95;1.00;;;;;;;;;;8202942;28;20339;-70
2023/08/07 23:34:55;;;;;;;1.35;0.90;;;;;;;;;;8202448;28;20093;-69
2023/08/07 23:38:55;;;;;;;1.45;1.30;;;;;;;;;;8202544;28;20029;-70
2023/08/07 23:42:56;;;;;;;0.80;0.80;;;;;;;;;;8200967;28;20030;-70
2023/08/07 23:46:56;;;;;;;1.60;0.95;;;;;;;;;;8202455;28;20036;-70
2023/08/07 23:50:56;;;;;;;1.10;1.00;;;;;;;;;;8201662;28;20030;-70
2023/08/07 23:54:56;;;;;;;1.33;0.90;;;;;;;;;;8200795;28;20133;-70
2023/08/07 23:58:57;;;;;;;1.00;0.90;;;;;;;;;;8199483;28;20033;-70
